Time;durP1;ratioP1;P1;durP2;ratioP2;P2;SDS_P1;SDS_P2;PMS_P1;PMS_P2;Temp;Humidity;BMP_temperature;BMP_pressure;BME280_temperature;BME280_humidity;BME280_pressure;Samples;Min_cycle;Max_cycle;Signal;HPM_P1;HPM_P2
2023/09/15 00:02:05;;;;;;;;;;;;;;;25.82;41.20;102211.09;5060383;28;20012;-65
2023/09/15 00:04:30;;;;;;;;;;;;;;;25.81;41.24;102218.25;5056178;28;19950;-65
2023/09/15 00:06:56;;;;;;;;;;;;;;;25.83;40.81;102221.56;5061654;28;19939;-64
2023/09/15 00:09:21;;;;;;;;;;;;;;;25.83;41.30;102215.41;5060784;28;19989;-65
2023/09/15 00:11:49;;;;;;;;;;;;;;;25.82;40.94;102209.25;5057040;28;19955;-65
2023/09/15 00:14:15;;;;;;;;;;;;;;;25.82;41.22;102205.75;5065478;28;19957;-65
2023/09/15 00:16:41;;;;;;;;;;;;;;;25.79;41.08;102206.13;5056043;28;19947;-65
2023/09/15 00:19:13;;;;;;;;;;;;;;;25.78;41.19;102202.63;5058312;28;19957;-65
2023/09/15 00:21:39;;;;;;;;;;;;;;;25.78;41.24;102205.28;5071806;28;20365;-65
2023/09/15 00:24:08;;;;;;;;;;;;;;;25.79;40.92;102195.44;5062139;28;19962;-65
2023/09/15 00:26:33;;;;;;;;;;;;;;;25.79;40.85;102192.78;5062159;28;20064;-65
2023/09/15 00:29:02;;;;;;;;;;;;;;;25.81;40.89;102204.09;5061525;28;20055;-65
2023/09/15 00:31:28;;;;;;;;;;;;;;;25.80;41.23;102197.09;5053186;28;19940;-66
2023/09/15 00:33:53;;;;;;;;;;;;;;;25.79;40.98;102198.13;5059960;28;19978;-65
2023/09/15 00:36:19;;;;;;;;;;;;;;;25.79;41.17;102198.94;5057991;28;21059;-65
2023/09/15 00:38:44;;;;;;;;;;;;;;;25.79;41.04;102200.78;5060960;28;19952;-65
2023/09/15 00:41:09;;;;;;;;;;;;;;;25.78;41.13;102199.13;5056225;28;19944;-65
2023/09/15 00:43:35;;;;;;;;;;;;;;;25.78;40.99;102193.78;5053760;28;20038;-65
2023/09/15 00:46:02;;;;;;;;;;;;;;;25.77;41.10;102200.97;5055273;28;19945;-65
2023/09/15 00:48:27;;;;;;;;;;;;;;;25.76;41.10;102201.16;5093921;28;19961;-65
2023/09/15 00:50:53;;;;;;;;;;;;;;;25.76;41.13;102193.97;5058795;28;19989;-65
2023/09/15 00:53:20;;;;;;;;;;;;;;;25.77;40.99;102198.31;5050375;28;20005;-64
2023/09/15 00:55:47;;;;;;;;;;;;;;;25.74;40.78;102189.84;5056191;28;19944;-64
2023/09/15 00:58:15;;;;;;;;;;;;;;;25.75;41.00;102197.66;5056419;28;20022;-64
2023/09/15 01:00:43;;;;;;;;;;;;;;;25.75;41.15;102187.00;5059643;28;19948;-65
2023/09/15 01:03:11;;;;;;;;;;;;;;;25.75;41.06;102186.16;5091623;28;20318;-65
2023/09/15 01:05:39;;;;;;;;;;;;;;;25.74;41.15;102185.34;5059899;28;20603;-65
2023/09/15 01:08:07;;;;;;;;;;;;;;;25.73;40.83;102186.34;5057790;28;19945;-65
2023/09/15 01:10:33;;;;;;;;;;;;;;;25.74;40.83;102179.19;5053780;28;19944;-65
2023/09/15 01:12:59;;;;;;;;;;;;;;;25.73;40.78;102186.34;5055965;28;20013;-65
2023/09/15 01:15:34;;;;;;;;;;;;;;;25.72;40.87;102183.88;5055233;28;19982;-65
2023/09/15 01:18:15;;;;;;;;;;;;;;;25.73;40.91;102185.53;5066323;28;19947;-65
2023/09/15 01:20:55;;;;;;;;;;;;;;;25.72;40.96;102173.22;5063872;28;19953;-65
2023/09/15 01:23:42;;;;;;;;;;;;;;;25.70;40.67;102176.06;5061990;28;20395;-65
2023/09/15 01:26:07;;;;;;;;;;;;;;;25.70;41.06;102180.56;5066711;28;19949;-65
2023/09/15 01:28:45;;;;;;;;;;;;;;;25.69;41.06;102174.41;5056995;28;19945;-65
2023/09/15 01:31:11;;;;;;;;;;;;;;;25.70;41.02;102181.41;5058840;28;19956;-65
2023/09/15 01:33:37;;;;;;;;;;;;;;;25.69;40.80;102178.91;5058688;28;19976;-65
2023/09/15 01:36:03;;;;;;;;;;;;;;;25.68;40.81;102172.75;5067308;28;19953;-65
2023/09/15 01:38:30;;;;;;;;;;;;;;;25.68;41.02;102170.09;5059447;28;19979;-65
2023/09/15 01:40:55;;;;;;;;;;;;;;;25.68;40.83;102161.25;5058061;28;20036;-65
2023/09/15 01:43:21;;;;;;;;;;;;;;;25.66;40.82;102166.72;5059746;28;20644;-65
2023/09/15 01:45:46;;;;;;;;;;;;;;;25.67;41.04;102162.22;5064907;28;19942;-65
2023/09/15 01:48:14;;;;;;;;;;;;;;;25.69;40.96;102163.75;5062033;28;19985;-65
2023/09/15 01:50:41;;;;;;;;;;;;;;;25.66;41.02;102163.22;5063877;28;20041;-65
2023/09/15 01:53:06;;;;;;;;;;;;;;;25.66;41.02;102160.56;5060976;28;20110;-65
2023/09/15 01:55:33;;;;;;;;;;;;;;;25.65;41.01;102162.41;5057484;28;20498;-65
2023/09/15 01:57:58;;;;;;;;;;;;;;;25.66;40.88;102156.06;5062507;28;19943;-64
2023/09/15 02:00:23;;;;;;;;;;;;;;;25.67;40.83;102162.22;5060897;28;19945;-65
2023/09/15 02:02:49;;;;;;;;;;;;;;;25.66;40.91;102158.72;5060278;28;19957;-65
2023/09/15 02:05:23;;;;;;;;;;;;;;;25.67;40.84;102163.03;5060992;28;19993;-65
2023/09/15 02:07:48;;;;;;;;;;;;;;;25.66;40.87;102156.06;5057287;28;20404;-65
2023/09/15 02:10:14;;;;;;;;;;;;;;;25.65;40.56;102162.41;5061358;28;19946;-65
2023/09/15 02:12:39;;;;;;;;;;;;;;;25.65;40.97;102153.56;5062147;28;19977;-65
2023/09/15 02:15:07;;;;;;;;;;;;;;;25.63;40.90;102148.44;5069133;28;20260;-65
2023/09/15 02:17:32;;;;;;;;;;;;;;;25.64;40.91;102151.91;5060791;28;19990;-65
2023/09/15 02:19:58;;;;;;;;;;;;;;;25.64;40.74;102151.91;5062541;28;20403;-65
2023/09/15 02:22:24;;;;;;;;;;;;;;;25.61;40.63;102145.94;5058736;28;19951;-65
2023/09/15 02:24:50;;;;;;;;;;;;;;;25.63;40.61;102148.44;5061607;28;19965;-65
2023/09/15 02:27:15;;;;;;;;;;;;;;;25.59;40.93;102147.97;5059871;28;19967;-65
2023/09/15 02:29:41;;;;;;;;;;;;;;;25.63;40.57;102144.94;5062417;28;19958;-65
2023/09/15 02:32:06;;;;;;;;;;;;;;;25.62;40.64;102146.78;5064328;28;20055;-65
2023/09/15 02:34:32;;;;;;;;;;;;;;;25.59;40.93;102134.66;5059940;28;19957;-65
2023/09/15 02:36:57;;;;;;;;;;;;;;;25.59;40.60;102139.97;5057238;28;19945;-66
2023/09/15 02:39:22;;;;;;;;;;;;;;;25.61;40.51;102137.94;5066840;28;20397;-65
2023/09/15 02:41:48;;;;;;;;;;;;;;;25.58;40.52;102133.00;5075123;28;19998;-65
2023/09/15 02:44:14;;;;;;;;;;;;;;;25.58;40.71;102137.50;5057748;28;19946;-65
2023/09/15 02:46:39;;;;;;;;;;;;;;;25.59;40.80;102134.66;5066854;28;19997;-65
2023/09/15 02:49:05;;;;;;;;;;;;;;;25.58;40.51;102132.16;5065411;28;20371;-65
2023/09/15 02:51:33;;;;;;;;;;;;;;;25.58;40.82;102129.50;5055877;28;19947;-65
2023/09/15 02:54:00;;;;;;;;;;;;;;;25.54;40.74;102129.03;5091069;27;19965;-64
2023/09/15 02:56:25;;;;;;;;;;;;;;;25.56;40.83;102126.19;5057695;28;19941;-64
2023/09/15 02:58:51;;;;;;;;;;;;;;;25.55;40.85;102128.03;5060312;28;19958;-65
2023/09/15 03:01:17;;;;;;;;;;;;;;;25.56;40.65;102129.69;5060727;28;19945;-64
2023/09/15 03:03:49;;;;;;;;;;;;;;;25.57;40.66;102125.19;5093479;27;19950;-65
2023/09/15 03:06:15;;;;;;;;;;;;;;;25.54;40.80;102121.06;5061165;28;20316;-64
2023/09/15 03:08:42;;;;;;;;;;;;;;;25.55;40.50;102130.69;5072033;28;20031;-64
2023/09/15 03:11:12;;;;;;;;;;;;;;;25.57;40.67;102125.19;5087511;27;19948;-65
2023/09/15 03:13:37;;;;;;;;;;;;;;;25.55;40.78;102121.88;5056830;28;20356;-65
2023/09/15 03:16:11;;;;;;;;;;;;;;;25.53;40.53;102118.56;5062049;28;19971;-65
2023/09/15 03:18:37;;;;;;;;;;;;;;;25.54;40.69;102120.22;5057640;28;19947;-65
2023/09/15 03:21:03;;;;;;;;;;;;;;;25.52;40.80;102120.41;5063812;28;20651;-64
2023/09/15 03:23:29;;;;;;;;;;;;;;;25.50;40.42;102122.44;5051069;28;19960;-65
2023/09/15 03:25:58;;;;;;;;;;;;;;;25.51;40.55;102118.75;5101301;27;19940;-65
2023/09/15 03:28:23;;;;;;;;;;;;;;;25.51;40.55;102115.25;5067155;28;20449;-65
2023/09/15 03:30:51;;;;;;;;;;;;;;;25.49;40.44;102115.44;5065667;28;20095;-65
2023/09/15 03:33:17;;;;;;;;;;;;;;;25.50;40.61;102108.28;5068542;28;20144;-65
2023/09/15 03:35:43;;;;;;;;;;;;;;;25.49;40.52;102115.44;5062651;28;20449;-65
2023/09/15 03:38:09;;;;;;;;;;;;;;;25.48;40.71;102111.09;5062532;28;20030;-64
2023/09/15 03:40:34;;;;;;;;;;;;;;;25.51;40.41;102116.09;5089150;27;19987;-64
2023/09/15 03:43:00;;;;;;;;;;;;;;;25.50;40.48;102105.63;5060448;28;19941;-65
2023/09/15 03:45:25;;;;;;;;;;;;;;;25.51;40.45;102109.94;5066230;28;19965;-65
2023/09/15 03:47:50;;;;;;;;;;;;;;;25.48;40.42;102110.28;5061658;28;20557;-65
2023/09/15 03:50:21;;;;;;;;;;;;;;;25.47;40.69;102103.28;5066767;28;19944;-65
2023/09/15 03:52:47;;;;;;;;;;;;;;;25.48;40.69;102105.78;5056941;28;20779;-65
2023/09/15 03:55:12;;;;;;;;;;;;;;;25.48;40.70;102096.94;5056692;28;19940;-64
2023/09/15 03:57:37;;;;;;;;;;;;;;;25.47;40.37;102101.44;5054900;28;21810;-65
2023/09/15 04:00:05;;;;;;;;;;;;;;;25.47;40.42;102095.28;5054632;28;19951;-65
2023/09/15 04:02:37;;;;;;;;;;;;;;;25.45;40.52;102092.81;5067182;28;19951;-66
2023/09/15 04:05:04;;;;;;;;;;;;;;;25.46;40.62;102093.63;5058522;28;20050;-65
2023/09/15 04:07:31;;;;;;;;;;;;;;;25.45;40.65;102108.00;5065898;28;20318;-65
2023/09/15 04:09:57;;;;;;;;;;;;;;;25.44;40.35;102098.34;5058222;28;19944;-65
2023/09/15 04:12:23;;;;;;;;;;;;;;;25.42;40.50;102109.19;5055998;28;20461;-65
2023/09/15 04:14:48;;;;;;;;;;;;;;;25.42;40.41;102108.38;5063434;28;19950;-64
2023/09/15 04:17:13;;;;;;;;;;;;;;;25.42;40.51;102100.38;5063269;28;20641;-64
2023/09/15 04:19:39;;;;;;;;;;;;;;;25.42;40.37;102103.84;5058001;28;20399;-65
2023/09/15 04:22:05;;;;;;;;;;;;;;;25.41;40.23;102104.88;5063580;28;20622;-65
2023/09/15 04:24:31;;;;;;;;;;;;;;;25.41;40.61;102102.22;5060667;28;19968;-65
2023/09/15 04:26:56;;;;;;;;;;;;;;;25.40;40.46;102103.22;5061939;28;20034;-65
2023/09/15 04:29:21;;;;;;;;;;;;;;;25.37;40.69;102103.59;5055172;28;20050;-65
2023/09/15 04:31:47;;;;;;;;;;;;;;;25.40;40.28;102099.72;5060936;28;20039;-65
2023/09/15 04:34:14;;;;;;;;;;;;;;;25.38;40.46;102097.25;5061283;28;20046;-65
2023/09/15 04:36:40;;;;;;;;;;;;;;;25.38;40.27;102097.25;5092026;28;19949;-65
2023/09/15 04:39:05;;;;;;;;;;;;;;;25.38;40.32;102096.44;5062909;28;19942;-65
2023/09/15 04:41:31;;;;;;;;;;;;;;;25.38;40.47;102088.44;5056546;28;19946;-65
2023/09/15 04:43:57;;;;;;;;;;;;;;;25.38;40.36;102094.59;5059318;28;19990;-64
2023/09/15 04:46:24;;;;;;;;;;;;;;;25.37;40.47;102095.59;5074278;28;20395;-65
2023/09/15 04:48:50;;;;;;;;;;;;;;;25.36;40.35;102085.94;5059866;28;19968;-65
2023/09/15 04:51:16;;;;;;;;;;;;;;;25.35;40.37;102091.47;5058699;28;20307;-64
2023/09/15 04:53:42;;;;;;;;;;;;;;;25.35;40.49;102088.81;5067242;28;19971;-65
2023/09/15 04:56:08;;;;;;;;;;;;;;;25.35;40.30;102089.63;5061746;28;19946;-65
2023/09/15 04:58:33;;;;;;;;;;;;;;;25.36;40.39;102088.63;5060638;28;19943;-65
2023/09/15 05:00:59;;;;;;;;;;;;;;;25.33;40.30;102093.50;5064292;28;20412;-65
2023/09/15 05:03:25;;;;;;;;;;;;;;;25.33;40.22;102091.66;5062310;28;19946;-64
2023/09/15 05:05:51;;;;;;;;;;;;;;;25.34;40.30;102087.97;5065979;28;19954;-65
2023/09/15 05:08:16;;;;;;;;;;;;;;;25.34;40.34;102095.16;5061978;28;19942;-65
2023/09/15 05:10:42;;;;;;;;;;;;;;;25.32;40.22;102098.00;5064740;28;20208;-65
2023/09/15 05:13:07;;;;;;;;;;;;;;;25.33;40.41;102094.31;5060915;28;19966;-65
2023/09/15 05:15:34;;;;;;;;;;;;;;;25.33;40.30;102094.31;5046783;28;19964;-65
2023/09/15 05:18:01;;;;;;;;;;;;;;;25.32;40.28;102108.66;5058090;28;19939;-64
2023/09/15 05:20:29;;;;;;;;;;;;;;;25.28;40.27;102108.19;5065306;28;19986;-64
2023/09/15 05:22:55;;;;;;;;;;;;;;;25.30;40.17;102110.66;5064075;28;20054;-65
2023/09/15 05:25:20;;;;;;;;;;;;;;;25.28;40.31;102108.19;5089955;28;20488;-65
2023/09/15 05:27:45;;;;;;;;;;;;;;;25.29;40.42;102101.84;5063137;28;19950;-64
2023/09/15 05:30:11;;;;;;;;;;;;;;;25.30;40.28;102102.66;5062472;28;19942;-65
2023/09/15 05:32:37;;;;;;;;;;;;;;;25.29;40.40;102104.50;5067485;28;20462;-65
2023/09/15 05:35:06;;;;;;;;;;;;;;;25.29;40.40;102101.84;5055465;28;19948;-65
2023/09/15 05:37:32;;;;;;;;;;;;;;;25.29;40.44;102101.03;5077947;28;19952;-65
2023/09/15 05:39:58;;;;;;;;;;;;;;;25.28;40.48;102107.38;5088394;27;19952;-66
2023/09/15 05:42:23;;;;;;;;;;;;;;;25.28;40.37;102115.38;5063722;28;19969;-65
2023/09/15 05:44:48;;;;;;;;;;;;;;;25.26;40.24;102114.72;5058950;28;20010;-65
2023/09/15 05:47:14;;;;;;;;;;;;;;;25.27;40.30;102111.88;5065767;28;19939;-65
2023/09/15 05:49:39;;;;;;;;;;;;;;;25.27;40.26;102117.19;5056388;28;20355;-64
2023/09/15 05:52:05;;;;;;;;;;;;;;;25.26;40.26;102112.06;5065855;28;19962;-65
2023/09/15 05:54:30;;;;;;;;;;;;;;;25.27;40.26;102111.03;5069946;28;19955;-65
2023/09/15 05:56:56;;;;;;;;;;;;;;;25.27;40.48;102121.72;5066896;28;19963;-65
2023/09/15 05:59:21;;;;;;;;;;;;;;;25.26;40.27;102112.06;5068586;28;19944;-64
2023/09/15 06:01:47;;;;;;;;;;;;;;;25.26;40.32;102107.56;5060651;28;20292;-65
2023/09/15 06:04:16;;;;;;;;;;;;;;;25.25;40.20;102110.41;5064479;28;19961;-65
2023/09/15 06:06:41;;;;;;;;;;;;;;;25.27;40.24;102109.22;5062671;28;20420;-65
2023/09/15 06:09:06;;;;;;;;;;;;;;;25.25;40.26;102108.56;5065806;28;19944;-65
2023/09/15 06:11:32;;;;;;;;;;;;;;;25.25;40.29;102111.22;5062611;28;20514;-65
2023/09/15 06:13:57;;;;;;;;;;;;;;;25.23;40.46;102110.59;5062928;28;19951;-65
2023/09/15 06:16:23;;;;;;;;;;;;;;;25.26;40.43;102112.88;5062580;28;20415;-65
2023/09/15 06:18:48;;;;;;;;;;;;;;;25.25;40.26;102113.06;5067408;28;19952;-65
2023/09/15 06:21:14;;;;;;;;;;;;;;;25.24;40.33;102109.59;5061494;28;19938;-65
2023/09/15 06:23:39;;;;;;;;;;;;;;;25.24;40.18;102111.41;5059638;28;20062;-65
2023/09/15 06:26:04;;;;;;;;;;;;;;;25.24;40.16;102116.75;5058643;28;19970;-65
2023/09/15 06:28:30;;;;;;;;;;;;;;;25.23;40.23;102121.25;5061725;28;19996;-64
2023/09/15 06:30:55;;;;;;;;;;;;;;;25.23;40.29;102113.25;5055748;28;20975;-65
2023/09/15 06:33:21;;;;;;;;;;;;;;;25.24;40.29;102111.41;5060637;28;19964;-65
2023/09/15 06:35:47;;;;;;;;;;;;;;;25.06;40.09;102086.97;5060986;28;20058;-64
2023/09/15 06:38:12;;;;;;;;;;;;;;;25.22;40.06;102114.28;5057431;28;19989;-65
2023/09/15 06:40:37;;;;;;;;;;;;;;;25.23;40.33;102113.25;5059279;28;20010;-65
2023/09/15 06:43:04;;;;;;;;;;;;;;;25.23;40.16;102107.94;5060345;28;19950;-65
2023/09/15 06:45:31;;;;;;;;;;;;;;;25.24;40.00;102109.59;5058904;28;19947;-65
2023/09/15 06:47:56;;;;;;;;;;;;;;;25.25;40.22;102113.06;5059926;28;20390;-65
2023/09/15 06:50:22;;;;;;;;;;;;;;;25.25;40.07;102113.91;5058011;28;19949;-65
2023/09/15 06:52:47;;;;;;;;;;;;;;;25.25;40.11;102103.22;5058440;28;19996;-66
2023/09/15 06:55:13;;;;;;;;;;;;;;;25.28;40.21;102107.38;5059571;28;19950;-66
2023/09/15 06:57:38;;;;;;;;;;;;;;;25.28;40.33;102105.53;5073493;28;19948;-66
2023/09/15 07:00:04;;;;;;;;;;;;;;;25.28;40.27;102102.03;5058972;28;19955;-66
2023/09/15 07:02:29;;;;;;;;;;;;;;;25.34;40.08;102108.47;5059829;28;20522;-66
2023/09/15 07:04:54;;;;;;;;;;;;;;;25.30;40.17;102100.00;5059204;28;19949;-66
2023/09/15 07:07:20;;;;;;;;;;;;;;;25.33;40.38;102104.16;5061057;28;20471;-66
2023/09/15 07:09:45;;;;;;;;;;;;;;;25.35;40.26;102102.97;5063676;28;19959;-66
2023/09/15 07:12:11;;;;;;;;;;;;;;;25.35;40.33;102102.13;5059455;28;20045;-66
2023/09/15 07:14:36;;;;;;;;;;;;;;;25.38;40.25;102104.44;5061472;28;20357;-66
2023/09/15 07:17:01;;;;;;;;;;;;;;;25.39;40.14;102104.25;5061180;28;20081;-66
2023/09/15 07:19:27;;;;;;;;;;;;;;;25.41;40.56;102104.06;5062667;28;19935;-66
2023/09/15 07:21:52;;;;;;;;;;;;;;;25.42;40.18;102101.19;5057700;28;20041;-66
2023/09/15 07:24:17;;;;;;;;;;;;;;;25.44;40.21;102099.16;5056366;28;20008;-66
2023/09/15 07:26:43;;;;;;;;;;;;;;;25.47;40.31;102101.44;5059092;28;19950;-66
2023/09/15 07:29:08;;;;;;;;;;;;;;;25.48;40.33;102107.63;5054853;28;20002;-67
2023/09/15 07:31:34;;;;;;;;;;;;;;;25.48;40.41;102107.63;5059848;28;19954;-66
2023/09/15 07:34:00;;;;;;;;;;;;;;;25.49;40.44;102099.41;5062971;28;20458;-66
2023/09/15 07:36:25;;;;;;;;;;;;;;;25.49;40.30;102098.59;5054552;28;19937;-66
2023/09/15 07:38:50;;;;;;;;;;;;;;;25.51;40.45;102105.44;5096475;27;19973;-66
2023/09/15 07:41:16;;;;;;;;;;;;;;;25.53;40.51;102087.38;5057119;28;19953;-66
2023/09/15 07:43:43;;;;;;;;;;;;;;;25.53;40.33;102089.22;5065905;28;20421;-65
2023/09/15 07:46:08;;;;;;;;;;;;;;;25.55;40.48;102096.03;5056431;28;20022;-65
2023/09/15 07:48:34;;;;;;;;;;;;;;;25.57;40.28;102099.34;5061320;28;19942;-66
2023/09/15 07:50:59;;;;;;;;;;;;;;;25.57;40.19;102095.84;5062546;28;19939;-66
2023/09/15 07:53:25;;;;;;;;;;;;;;;25.57;40.37;102094.00;5061274;28;21830;-66
2023/09/15 07:55:50;;;;;;;;;;;;;;;25.36;39.83;102090.47;5061117;28;19948;-67
2023/09/15 07:58:16;;;;;;;;;;;;;;;25.09;40.16;102084.75;5056587;28;19943;-67
2023/09/15 08:00:41;;;;;;;;;;;;;;;25.18;40.14;102089.00;5058238;28;20012;-66
2023/09/15 08:03:08;;;;;;;;;;;;;;;25.38;40.27;102078.59;5062299;28;19938;-66
2023/09/15 08:05:34;;;;;;;;;;;;;;;25.46;39.98;102082.97;5063861;28;19963;-66
2023/09/15 08:07:59;;;;;;;;;;;;;;;25.52;40.11;102084.91;5063049;28;19948;-65
2023/09/15 08:10:26;;;;;;;;;;;;;;;25.57;40.07;102078.00;5060112;28;20697;-66
2023/09/15 08:12:52;;;;;;;;;;;;;;;25.60;40.55;102082.13;5054161;28;19969;-66
2023/09/15 08:15:19;;;;;;;;;;;;;;;25.64;40.27;102078.06;5057987;28;20427;-66
2023/09/15 08:17:44;;;;;;;;;;;;;;;25.64;40.42;102083.38;5055636;28;19943;-66
2023/09/15 08:20:11;;;;;;;;;;;;;;;25.65;40.38;102076.22;5052196;28;19951;-66
2023/09/15 08:22:38;;;;;;;;;;;;;;;25.68;40.44;102078.56;5062136;28;20538;-66
2023/09/15 08:25:04;;;;;;;;;;;;;;;25.68;40.20;102070.56;5058076;28;19990;-66
2023/09/15 08:27:30;;;;;;;;;;;;;;;25.71;40.46;102070.19;5069301;28;19975;-66
2023/09/15 08:29:55;;;;;;;;;;;;;;;25.72;40.38;102059.31;5056544;28;19947;-66
2023/09/15 08:32:20;;;;;;;;;;;;;;;25.74;40.24;102059.13;5062528;28;19943;-66
2023/09/15 08:34:46;;;;;;;;;;;;;;;25.74;40.19;102061.78;5053766;28;19990;-66
2023/09/15 08:37:14;;;;;;;;;;;;;;;25.75;40.21;102063.44;5060336;28;20007;-65
2023/09/15 08:39:39;;;;;;;;;;;;;;;25.76;40.32;102065.09;5060757;28;19940;-65
2023/09/15 08:42:11;;;;;;;;;;;;;;;25.77;40.41;102067.56;5064346;28;20014;-65
2023/09/15 08:44:37;;;;;;;;;;;;;;;25.76;40.28;102065.91;5058985;28;20395;-66
2023/09/15 08:47:03;;;;;;;;;;;;;;;25.77;40.64;102064.91;5066509;28;20410;-66
2023/09/15 08:49:29;;;;;;;;;;;;;;;25.79;40.53;102064.72;5064727;28;20044;-66
2023/09/15 08:51:55;;;;;;;;;;;;;;;25.79;40.49;102060.19;5062509;28;20040;-66
2023/09/15 08:54:21;;;;;;;;;;;;;;;25.80;40.68;102061.03;5062472;28;19971;-66
2023/09/15 08:56:46;;;;;;;;;;;;;;;25.81;40.54;102060.00;5065653;28;19941;-66
2023/09/15 08:59:12;;;;;;;;;;;;;;;25.81;40.33;102055.50;5060354;28;20319;-66
2023/09/15 09:01:37;;;;;;;;;;;;;;;25.83;40.57;102057.97;5058721;28;19954;-65
2023/09/15 09:04:03;;;;;;;;;;;;;;;25.83;40.33;102061.47;5066047;28;20533;-66
2023/09/15 09:06:32;;;;;;;;;;;;;;;25.83;40.58;102057.97;5054604;28;20684;-66
2023/09/15 09:08:58;;;;;;;;;;;;;;;25.84;40.38;102052.44;5062150;28;19951;-65
2023/09/15 09:11:23;;;;;;;;;;;;;;;25.85;40.54;102051.44;5058385;28;19953;-66
2023/09/15 09:13:52;;;;;;;;;;;;;;;25.85;40.50;102059.47;5065027;28;20352;-66
2023/09/15 09:16:18;;;;;;;;;;;;;;;25.86;40.30;102060.28;5055454;28;19948;-66
2023/09/15 09:18:53;;;;;;;;;;;;;;;25.84;40.73;102049.78;5061284;28;19942;-66
2023/09/15 09:21:22;;;;;;;;;;;;;;;25.85;40.34;102047.94;5063094;28;20389;-65
2023/09/15 09:23:48;;;;;;;;;;;;;;;25.85;40.67;102054.13;5056425;28;19962;-66
2023/09/15 09:26:14;;;;;;;;;;;;;;;25.85;40.60;102045.25;5061643;28;20447;-66
2023/09/15 09:28:39;;;;;;;;;;;;;;;25.87;40.44;102043.25;5059406;28;20036;-66
2023/09/15 09:31:05;;;;;;;;;;;;;;;25.68;40.52;102015.38;5060467;28;19950;-66
2023/09/15 09:33:30;;;;;;;;;;;;;;;25.87;40.65;102041.41;5062891;28;20338;-66
2023/09/15 09:35:57;;;;;;;;;;;;;;;25.88;40.50;102037.72;5060775;28;20284;-65
2023/09/15 09:38:25;;;;;;;;;;;;;;;25.88;40.56;102039.56;5060983;28;20367;-66
2023/09/15 09:40:50;;;;;;;;;;;;;;;25.88;40.56;102032.38;5068243;28;19990;-66
2023/09/15 09:43:16;;;;;;;;;;;;;;;25.88;40.54;102029.72;5068010;28;19983;-65
2023/09/15 09:45:41;;;;;;;;;;;;;;;25.87;40.59;102028.06;5060280;28;19991;-65
2023/09/15 09:48:06;;;;;;;;;;;;;;;25.90;40.56;102025.00;5060429;28;19943;-65
2023/09/15 09:50:34;;;;;;;;;;;;;;;25.91;40.56;102020.50;5063799;28;20035;-67
2023/09/15 09:53:07;;;;;;;;;;;;;;;25.92;40.23;102016.81;5062279;28;20003;-65
2023/09/15 09:55:32;;;;;;;;;;;;;;;25.90;40.18;102025.00;5065200;28;20388;-65
2023/09/15 09:58:03;;;;;;;;;;;;;;;25.89;40.33;102015.34;5062631;28;19951;-65
2023/09/15 10:00:32;;;;;;;;;;;;;;;25.91;40.54;102012.50;5062993;28;19939;-65
2023/09/15 10:02:57;;;;;;;;;;;;;;;25.89;40.51;102022.53;5063902;28;19951;-64
2023/09/15 10:05:23;;;;;;;;;;;;;;;25.87;40.59;102019.22;5065678;28;19947;-65
2023/09/15 10:07:49;;;;;;;;;;;;;;;25.87;40.09;102017.41;5065429;28;19942;-65
2023/09/15 10:10:15;;;;;;;;;;;;;;;25.89;40.42;102011.88;5058681;28;19980;-65
2023/09/15 10:12:40;;;;;;;;;;;;;;;25.89;40.55;102006.53;5061181;28;19959;-65
2023/09/15 10:15:07;;;;;;;;;;;;;;;25.89;40.61;102004.69;5061667;28;19970;-65
2023/09/15 10:17:33;;;;;;;;;;;;;;;25.87;40.57;102005.91;5055338;28;20039;-65
2023/09/15 10:19:59;;;;;;;;;;;;;;;25.88;40.67;102005.69;5063758;28;19968;-66
2023/09/15 10:22:25;;;;;;;;;;;;;;;25.87;40.42;102008.56;5060026;28;20392;-65
2023/09/15 10:24:56;;;;;;;;;;;;;;;25.69;40.31;101974.31;5063286;28;19969;-65
2023/09/15 10:27:21;;;;;;;;;;;;;;;25.88;40.61;102011.03;5054544;28;19946;-65
2023/09/15 10:29:47;;;;;;;;;;;;;;;25.88;40.38;102004.88;5076366;28;19943;-65
2023/09/15 10:32:15;;;;;;;;;;;;;;;25.88;40.55;102007.53;5062079;28;20463;-65
2023/09/15 10:34:42;;;;;;;;;;;;;;;25.88;40.26;102003.03;5057685;28;20397;-66
2023/09/15 10:37:09;;;;;;;;;;;;;;;25.87;40.41;101998.72;5063112;28;20414;-65
2023/09/15 10:39:35;;;;;;;;;;;;;;;25.88;40.33;101996.88;5057667;28;20032;-65
2023/09/15 10:42:08;;;;;;;;;;;;;;;25.86;40.48;101993.56;5060407;28;19939;-65
2023/09/15 10:44:33;;;;;;;;;;;;;;;25.86;40.60;101983.72;5058066;28;19943;-65
2023/09/15 10:46:59;;;;;;;;;;;;;;;25.86;40.50;101980.22;5056645;28;20290;-66
2023/09/15 10:49:25;;;;;;;;;;;;;;;25.87;40.54;101980.03;5061927;28;20005;-65
2023/09/15 10:51:57;;;;;;;;;;;;;;;25.87;40.51;101979.22;5060495;28;20657;-66
2023/09/15 10:54:24;;;;;;;;;;;;;;;25.87;40.16;101968.53;5058555;28;20010;-66
2023/09/15 10:56:49;;;;;;;;;;;;;;;25.88;40.55;101959.50;5060776;28;19957;-66
2023/09/15 10:59:18;;;;;;;;;;;;;;;25.86;40.34;101959.72;5059038;28;19957;-65
2023/09/15 11:01:44;;;;;;;;;;;;;;;25.88;40.22;101967.50;5058185;28;20036;-66
2023/09/15 11:04:13;;;;;;;;;;;;;;;25.89;40.66;101970.00;5058450;28;19931;-65
2023/09/15 11:06:39;;;;;;;;;;;;;;;25.90;40.53;101962.81;5056929;28;20038;-66
2023/09/15 11:09:05;;;;;;;;;;;;;;;25.88;40.44;101963.00;5060647;28;19957;-66
2023/09/15 11:11:31;;;;;;;;;;;;;;;25.87;40.52;101960.53;5056386;28;19956;-67
2023/09/15 11:13:57;;;;;;;;;;;;;;;25.87;40.62;101949.84;5057996;28;19964;-66
2023/09/15 11:16:24;;;;;;;;;;;;;;;25.88;40.19;101967.50;5063871;28;20007;-66
2023/09/15 11:18:50;;;;;;;;;;;;;;;25.88;40.21;101952.31;5056400;28;19939;-66
2023/09/15 11:21:15;;;;;;;;;;;;;;;25.90;40.53;101952.13;5060886;28;19978;-66
2023/09/15 11:23:46;;;;;;;;;;;;;;;25.90;40.40;101960.97;5060794;28;20012;-66
2023/09/15 11:26:11;;;;;;;;;;;;;;;25.89;40.13;101951.31;5059528;28;19984;-66
2023/09/15 11:28:37;;;;;;;;;;;;;;;25.89;40.50;101950.47;5056689;28;20045;-67
2023/09/15 11:31:05;;;;;;;;;;;;;;;25.88;40.25;101938.16;5059197;28;20419;-67
2023/09/15 11:33:31;;;;;;;;;;;;;;;25.89;40.33;101940.63;5063668;28;19967;-67
2023/09/15 11:35:57;;;;;;;;;;;;;;;25.91;40.39;101935.09;5061410;28;20382;-67
2023/09/15 11:38:22;;;;;;;;;;;;;;;25.89;40.14;101929.97;5059266;28;19946;-67
2023/09/15 11:40:48;;;;;;;;;;;;;;;25.90;40.40;101923.59;5060516;28;20043;-67
2023/09/15 11:43:14;;;;;;;;;;;;;;;25.92;40.26;101927.91;5055652;28;19946;-67
2023/09/15 11:45:40;;;;;;;;;;;;;;;25.92;40.16;101922.59;5052976;28;19947;-67
2023/09/15 11:48:06;;;;;;;;;;;;;;;25.90;40.07;101917.44;5058236;28;19950;-67
2023/09/15 11:50:32;;;;;;;;;;;;;;;25.91;40.52;101916.41;5058093;28;20004;-66
2023/09/15 11:52:58;;;;;;;;;;;;;;;25.92;40.48;101906.56;5057006;28;19970;-66
2023/09/15 11:55:24;;;;;;;;;;;;;;;25.90;40.45;101904.91;5065595;28;19945;-66
2023/09/15 11:57:52;;;;;;;;;;;;;;;25.90;40.45;101910.25;5057376;28;21543;-67
2023/09/15 12:00:19;;;;;;;;;;;;;;;25.89;40.55;101895.28;5056028;28;20027;-66
2023/09/15 12:02:46;;;;;;;;;;;;;;;25.90;40.41;101896.91;5060182;28;19989;-66
2023/09/15 12:05:16;;;;;;;;;;;;;;;25.90;40.46;101898.75;5065058;28;19941;-66
2023/09/15 12:07:45;;;;;;;;;;;;;;;25.88;40.49;101901.63;5056157;28;20040;-67
2023/09/15 12:10:14;;;;;;;;;;;;;;;25.92;40.26;101893.22;5061003;28;19951;-67
2023/09/15 12:12:39;;;;;;;;;;;;;;;25.88;40.26;101893.63;5061132;28;20447;-67
2023/09/15 12:15:06;;;;;;;;;;;;;;;25.87;40.19;101891.16;5061213;28;19953;-66
2023/09/15 12:17:31;;;;;;;;;;;;;;;25.88;40.25;101888.28;5059377;28;19947;-67
2023/09/15 12:19:59;;;;;;;;;;;;;;;25.88;40.61;101882.13;5060139;28;19952;-67
2023/09/15 12:22:41;;;;;;;;;;;;;;;25.89;40.19;101883.78;5056576;28;19978;-67
2023/09/15 12:25:10;;;;;;;;;;;;;;;25.92;40.28;101882.56;5057388;28;20059;-66
2023/09/15 12:27:39;;;;;;;;;;;;;;;25.92;40.16;101874.56;5055716;28;20488;-67
2023/09/15 12:30:05;;;;;;;;;;;;;;;25.94;40.37;101870.66;5055166;28;19947;-67
2023/09/15 12:32:31;;;;;;;;;;;;;;;25.91;40.33;101868.38;5060030;28;19966;-66